Time;durP1;ratioP1;P1;durP2;ratioP2;P2;SDS_P1;SDS_P2;PMS_P1;PMS_P2;Temp;Humidity;BMP_temperature;BMP_pressure;BME280_temperature;BME280_humidity;BME280_pressure;Samples;Min_cycle;Max_cycle;Signal;HPM_P1;HPM_P2
2023/07/04 00:01:54;;;;;;;0.70;0.70;;;16.90;99.90;;;;;;5074198;28;20464;-84
2023/07/04 00:04:22;;;;;;;1.83;0.70;;;16.90;99.90;;;;;;5073477;28;21014;-84
2023/07/04 00:06:50;;;;;;;2.83;0.97;;;16.90;99.90;;;;;;5074052;28;20460;-84
2023/07/04 00:09:17;;;;;;;1.60;0.90;;;16.90;99.90;;;;;;5073923;28;20569;-84
2023/07/04 00:11:44;;;;;;;0.70;0.50;;;16.90;99.90;;;;;;5073667;28;20967;-84
2023/07/04 00:14:10;;;;;;;3.80;1.23;;;16.80;99.90;;;;;;5073910;28;20464;-84
2023/07/04 00:16:37;;;;;;;4.20;0.90;;;16.70;99.90;;;;;;5073925;28;20471;-84
2023/07/04 00:19:06;;;;;;;1.70;0.60;;;16.70;99.90;;;;;;5073793;28;20476;-84
2023/07/04 00:21:33;;;;;;;1.13;0.70;;;16.70;99.90;;;;;;5073779;28;20459;-84
2023/07/04 00:24:00;;;;;;;1.80;0.97;;;16.70;99.90;;;;;;5073424;28;20821;-84
2023/07/04 00:26:29;;;;;;;2.20;0.80;;;16.70;99.90;;;;;;5073778;28;20456;-83
2023/07/04 00:28:55;;;;;;;0.80;0.80;;;16.70;99.90;;;;;;5073380;28;20493;-84
2023/07/04 00:31:24;;;;;;;1.20;1.10;;;16.70;99.90;;;;;;5073682;28;20544;-84
2023/07/04 00:33:51;;;;;;;3.73;1.10;;;16.70;99.90;;;;;;5073659;28;20441;-84
2023/07/04 00:36:20;;;;;;;1.23;0.90;;;16.70;99.90;;;;;;5074131;28;20457;-84
2023/07/04 00:38:51;;;;;;;0.70;0.70;;;16.70;99.90;;;;;;5073217;28;20846;-84
2023/07/04 00:41:21;;;;;;;1.20;1.10;;;16.70;99.90;;;;;;5073625;28;20451;-85
2023/07/04 00:43:57;;;;;;;0.80;0.70;;;16.60;99.90;;;;;;5073594;28;20790;-85
2023/07/04 00:46:36;;;;;;;1.00;0.90;;;16.60;99.90;;;;;;5073524;28;20437;-84
2023/07/04 00:49:06;;;;;;;1.23;0.63;;;16.50;99.90;;;;;;5073455;28;20523;-84
2023/07/04 00:51:35;;;;;;;0.93;0.80;;;16.60;99.90;;;;;;5073675;28;20477;-84
2023/07/04 00:54:04;;;;;;;2.93;0.90;;;16.70;99.90;;;;;;5073406;28;20452;-84
2023/07/04 00:56:31;;;;;;;0.93;0.90;;;16.70;99.90;;;;;;5073407;28;20440;-84
2023/07/04 00:58:59;;;;;;;3.43;0.80;;;16.70;99.90;;;;;;5072986;28;20996;-84
2023/07/04 01:01:26;;;;;;;2.40;1.00;;;16.70;99.90;;;;;;5073100;28;20990;-84
2023/07/04 01:03:55;;;;;;;1.80;0.87;;;16.60;99.90;;;;;;5073335;28;20476;-84
2023/07/04 01:06:27;;;;;;;0.70;0.70;;;16.60;99.90;;;;;;5073224;28;20538;-85
2023/07/04 01:09:04;;;;;;;0.70;0.63;;;16.50;99.90;;;;;;5072915;28;20479;-84
2023/07/04 01:11:42;;;;;;;1.90;1.10;;;16.50;99.90;;;;;;5076094;28;20837;-84
2023/07/04 01:14:19;;;;;;;2.20;0.90;;;16.50;99.90;;;;;;5077400;28;20467;-84
2023/07/04 01:16:46;;;;;;;1.30;0.83;;;16.50;99.90;;;;;;5077319;28;20436;-84
2023/07/04 01:19:18;;;;;;;3.43;0.90;;;16.50;99.90;;;;;;5077191;28;20471;-84
2023/07/04 01:21:47;;;;;;;2.10;0.80;;;16.60;99.90;;;;;;5077278;28;20424;-84
2023/07/04 01:24:21;;;;;;;3.93;0.80;;;16.60;99.90;;;;;;5076794;28;20460;-84
2023/07/04 01:26:50;;;;;;;0.73;0.67;;;16.70;99.90;;;;;;5077225;28;20444;-84
2023/07/04 01:29:18;;;;;;;1.57;0.77;;;16.60;99.90;;;;;;5076593;28;20846;-84
2023/07/04 01:31:46;;;;;;;1.03;0.70;;;16.60;99.90;;;;;;5077269;28;20456;-84
2023/07/04 01:34:15;;;;;;;2.00;0.80;;;16.60;99.90;;;;;;5077017;28;20444;-84
2023/07/04 01:36:44;;;;;;;1.03;0.93;;;16.60;99.90;;;;;;5077523;28;20448;-84
2023/07/04 01:39:14;;;;;;;1.83;0.80;;;16.50;99.90;;;;;;5076815;28;20473;-84
2023/07/04 01:41:44;;;;;;;1.70;0.83;;;16.50;99.90;;;;;;5076893;28;20432;-84
2023/07/04 01:44:15;;;;;;;0.80;0.80;;;16.60;99.90;;;;;;5076668;28;20455;-84
2023/07/04 01:46:42;;;;;;;1.57;0.73;;;16.60;99.90;;;;;;5076749;28;20491;-84
2023/07/04 01:49:09;;;;;;;1.27;0.60;;;16.60;99.90;;;;;;5076658;28;20463;-84
2023/07/04 01:51:39;;;;;;;0.60;0.60;;;16.60;99.90;;;;;;5080317;28;20453;-84
2023/07/04 01:54:07;;;;;;;0.80;0.80;;;16.60;99.90;;;;;;5076869;28;20429;-84
2023/07/04 01:56:36;;;;;;;1.23;0.70;;;16.60;99.90;;;;;;5076603;28;20448;-84
2023/07/04 01:59:03;;;;;;;1.33;0.70;;;16.70;99.90;;;;;;5076441;28;20472;-84
2023/07/04 02:01:31;;;;;;;0.87;0.80;;;16.60;99.90;;;;;;5076372;28;20449;-84
2023/07/04 02:03:58;;;;;;;1.30;0.83;;;16.70;99.90;;;;;;5076678;28;20453;-84
2023/07/04 02:06:25;;;;;;;2.00;0.50;;;16.70;99.90;;;;;;5076541;28;20491;-85
2023/07/04 02:08:53;;;;;;;0.63;0.60;;;16.60;99.90;;;;;;5076903;28;20461;-85
2023/07/04 02:11:20;;;;;;;1.50;0.90;;;16.60;99.90;;;;;;5075989;28;20950;-84
2023/07/04 02:13:46;;;;;;;1.00;0.90;;;16.60;99.90;;;;;;5076041;28;20963;-83
2023/07/04 02:16:13;;;;;;;0.63;0.60;;;16.60;99.90;;;;;;5076270;28;20440;-84
2023/07/04 02:18:41;;;;;;;0.90;0.80;;;16.60;99.90;;;;;;5075787;28;21003;-84
2023/07/04 02:21:08;;;;;;;0.97;0.87;;;16.60;99.90;;;;;;5075847;28;20935;-84
2023/07/04 02:23:34;;;;;;;0.57;0.57;;;16.60;99.90;;;;;;5076159;28;20456;-84
2023/07/04 02:26:01;;;;;;;4.43;0.70;;;16.60;99.90;;;;;;5075957;28;20853;-84
2023/07/04 02:28:28;;;;;;;1.23;0.83;;;16.60;99.90;;;;;;5075672;28;20487;-83
2023/07/04 02:30:55;;;;;;;0.87;0.60;;;16.70;99.90;;;;;;5076490;28;20781;-84
2023/07/04 02:33:22;;;;;;;1.50;0.73;;;16.60;99.90;;;;;;5075906;28;20455;-84
2023/07/04 02:35:50;;;;;;;0.70;0.70;;;16.60;99.90;;;;;;5075896;28;20448;-84
2023/07/04 02:38:18;;;;;;;0.70;0.70;;;16.60;99.90;;;;;;5075795;28;20469;-84
2023/07/04 02:40:45;;;;;;;1.23;0.83;;;16.50;99.90;;;;;;5075773;28;20844;-84
2023/07/04 02:43:12;;;;;;;0.50;0.50;;;16.50;99.90;;;;;;5075882;28;20440;-84
2023/07/04 02:45:40;;;;;;;0.70;0.70;;;16.50;99.90;;;;;;5075629;28;20483;-84
2023/07/04 02:48:06;;;;;;;0.40;0.40;;;16.50;99.90;;;;;;5075260;28;20453;-84
2023/07/04 02:50:33;;;;;;;0.93;0.53;;;16.50;99.90;;;;;;5075738;28;20445;-84
2023/07/04 02:53:02;;;;;;;0.50;0.50;;;16.40;99.90;;;;;;5075246;28;20948;-84
2023/07/04 02:55:28;;;;;;;0.83;0.80;;;16.30;99.90;;;;;;5075505;28;20562;-84
2023/07/04 02:57:55;;;;;;;0.80;0.70;;;16.30;99.90;;;;;;5075345;28;20448;-84
2023/07/04 03:00:22;;;;;;;2.10;0.63;;;16.30;99.90;;;;;;5075394;28;20444;-84
2023/07/04 03:02:49;;;;;;;1.10;0.60;;;16.30;99.90;;;;;;5075348;28;20441;-84
2023/07/04 03:05:15;;;;;;;0.57;0.50;;;16.30;99.90;;;;;;5075262;28;20491;-83
2023/07/04 03:07:42;;;;;;;0.77;0.60;;;16.30;99.90;;;;;;5075266;28;20440;-84
2023/07/04 03:10:11;;;;;;;0.90;0.70;;;16.30;99.90;;;;;;5075171;28;20492;-84
2023/07/04 03:12:38;;;;;;;0.70;0.70;;;16.30;99.90;;;;;;5075219;28;20448;-84
2023/07/04 03:15:06;;;;;;;0.43;0.43;;;16.30;99.90;;;;;;5075149;28;20440;-84
2023/07/04 03:17:33;;;;;;;1.40;0.60;;;16.30;99.90;;;;;;5075030;28;20502;-84
2023/07/04 03:19:59;;;;;;;0.50;0.50;;;16.40;99.90;;;;;;5074962;28;20473;-84
2023/07/04 03:22:26;;;;;;;1.00;0.90;;;16.30;99.90;;;;;;5074970;28;20480;-84
2023/07/04 03:24:53;;;;;;;5.73;0.60;;;16.30;99.90;;;;;;5074517;28;20941;-84
2023/07/04 03:27:21;;;;;;;1.10;0.77;;;16.30;99.90;;;;;;5074849;28;20453;-84
2023/07/04 03:29:48;;;;;;;0.50;0.50;;;16.30;99.90;;;;;;5074515;28;20493;-84
2023/07/04 03:32:15;;;;;;;0.80;0.50;;;16.40;99.90;;;;;;5074746;28;20445;-84
2023/07/04 03:34:41;;;;;;;2.40;0.97;;;16.40;99.90;;;;;;5074153;28;20449;-84
2023/07/04 03:37:08;;;;;;;0.60;0.57;;;16.40;99.90;;;;;;5074367;28;20451;-84
2023/07/04 03:39:35;;;;;;;1.80;0.60;;;16.40;99.90;;;;;;5074232;28;20469;-84
2023/07/04 03:42:02;;;;;;;1.80;0.60;;;16.30;99.90;;;;;;5074780;28;20455;-84
2023/07/04 03:44:30;;;;;;;0.67;0.67;;;16.30;99.90;;;;;;5074530;28;20448;-84
2023/07/04 03:46:56;;;;;;;3.30;0.80;;;16.30;99.90;;;;;;5074079;28;21008;-84
2023/07/04 03:49:23;;;;;;;1.20;0.70;;;16.30;99.90;;;;;;5074314;28;20460;-84
2023/07/04 03:51:50;;;;;;;2.10;0.80;;;16.30;99.90;;;;;;5074340;28;20805;-84
2023/07/04 03:54:17;;;;;;;1.63;0.63;;;16.30;99.90;;;;;;5074366;28;20441;-84
2023/07/04 03:56:44;;;;;;;2.83;0.90;;;16.30;99.90;;;;;;5074301;28;20870;-84
2023/07/04 03:59:10;;;;;;;1.23;0.60;;;16.40;99.90;;;;;;5074190;28;20480;-83
2023/07/04 04:01:38;;;;;;;1.40;0.70;;;16.40;99.90;;;;;;5074256;28;20448;-84
2023/07/04 04:04:05;;;;;;;0.50;0.50;;;16.40;99.90;;;;;;5074197;28;20444;-84
2023/07/04 04:06:32;;;;;;;6.37;0.80;;;16.30;99.90;;;;;;5074042;28;20488;-84
2023/07/04 04:08:58;;;;;;;0.67;0.60;;;16.30;99.90;;;;;;5074030;28;20465;-84
2023/07/04 04:11:25;;;;;;;2.47;0.60;;;16.40;99.90;;;;;;5073702;28;20816;-84
2023/07/04 04:13:52;;;;;;;0.90;0.50;;;16.40;99.90;;;;;;5073942;28;20453;-84
2023/07/04 04:16:19;;;;;;;2.40;1.10;;;16.50;99.90;;;;;;5073891;28;20835;-84
2023/07/04 04:18:47;;;;;;;0.80;0.70;;;16.50;99.90;;;;;;5074046;28;20500;-84
2023/07/04 04:21:13;;;;;;;1.23;0.73;;;16.60;99.90;;;;;;5073820;28;20944;-84
2023/07/04 04:23:40;;;;;;;1.87;0.60;;;16.50;99.90;;;;;;5073547;28;20429;-84
2023/07/04 04:26:08;;;;;;;2.93;0.60;;;16.50;99.90;;;;;;5073721;28;20484;-84
2023/07/04 04:28:35;;;;;;;1.23;0.50;;;16.60;99.90;;;;;;5073608;28;20484;-84
2023/07/04 04:31:01;;;;;;;1.40;0.60;;;16.50;99.90;;;;;;5073716;28;20449;-84
2023/07/04 04:33:28;;;;;;;0.73;0.73;;;16.60;99.90;;;;;;5073677;28;20448;-84
2023/07/04 04:35:56;;;;;;;1.53;1.00;;;16.60;99.90;;;;;;5073641;28;20448;-84
2023/07/04 04:38:23;;;;;;;0.87;0.77;;;16.60;99.90;;;;;;5073239;28;20839;-85
2023/07/04 04:40:50;;;;;;;0.63;0.57;;;16.70;99.90;;;;;;5073263;28;20523;-84
2023/07/04 04:43:17;;;;;;;2.83;0.77;;;16.70;99.90;;;;;;5073477;28;20449;-84
2023/07/04 04:45:44;;;;;;;1.13;0.93;;;16.60;99.90;;;;;;5072380;28;20998;-84
2023/07/04 04:48:20;;;;;;;1.87;1.03;;;16.60;99.90;;;;;;5073381;28;20448;-84
2023/07/04 04:50:47;;;;;;;1.70;0.70;;;16.70;99.90;;;;;;5073506;28;20429;-84
2023/07/04 04:53:15;;;;;;;0.50;0.50;;;16.70;99.90;;;;;;5073008;28;20452;-84
2023/07/04 04:55:42;;;;;;;1.33;0.70;;;16.80;99.90;;;;;;5073385;28;20444;-84
2023/07/04 04:58:09;;;;;;;1.37;0.70;;;16.80;99.90;;;;;;5073001;28;20444;-84
2023/07/04 05:00:35;;;;;;;1.00;0.60;;;16.90;99.90;;;;;;5073387;28;20448;-84
2023/07/04 05:03:02;;;;;;;0.70;0.60;;;17.00;99.90;;;;;;5073254;28;20453;-84
2023/07/04 05:05:29;;;;;;;0.70;0.70;;;17.10;99.90;;;;;;5073237;28;20468;-84
2023/07/04 05:07:55;;;;;;;0.40;0.40;;;17.10;99.90;;;;;;5073151;28;20452;-84
2023/07/04 05:10:23;;;;;;;1.27;0.60;;;17.10;99.90;;;;;;5072903;28;20968;-84
2023/07/04 05:12:51;;;;;;;1.07;0.90;;;17.20;99.90;;;;;;5073217;28;20445;-84
2023/07/04 05:15:18;;;;;;;2.50;0.83;;;17.20;99.90;;;;;;5073194;28;20517;-85
2023/07/04 05:17:45;;;;;;;1.43;0.77;;;17.20;99.90;;;;;;5073175;28;20445;-85
2023/07/04 05:20:15;;;;;;;1.00;0.90;;;17.20;99.90;;;;;;5072981;28;20473;-85
2023/07/04 05:22:42;;;;;;;1.13;0.87;;;17.10;99.90;;;;;;5073176;28;20451;-84
2023/07/04 05:25:10;;;;;;;0.70;0.70;;;17.20;99.90;;;;;;5073196;28;20450;-83
2023/07/04 05:27:38;;;;;;;0.90;0.63;;;17.20;99.90;;;;;;5073032;28;20485;-84
2023/07/04 05:30:06;;;;;;;0.83;0.83;;;17.30;99.90;;;;;;5073060;28;20461;-84
2023/07/04 05:32:33;;;;;;;1.10;0.60;;;17.30;99.90;;;;;;5073046;28;20432;-85
2023/07/04 05:35:00;;;;;;;2.90;0.80;;;17.40;99.90;;;;;;5073308;28;20444;-84
2023/07/04 05:37:28;;;;;;;0.80;0.77;;;17.60;99.90;;;;;;5072998;28;20441;-84
2023/07/04 05:39:55;;;;;;;1.40;0.80;;;17.70;99.90;;;;;;5072951;28;20915;-84
2023/07/04 05:42:22;;;;;;;1.13;0.80;;;17.70;99.90;;;;;;5073170;28;20444;-84
2023/07/04 05:44:50;;;;;;;3.57;0.80;;;17.70;99.90;;;;;;5072596;28;21060;-84
2023/07/04 05:47:17;;;;;;;1.73;0.90;;;17.80;99.90;;;;;;5072521;28;20519;-84
2023/07/04 05:49:43;;;;;;;1.83;0.67;;;17.80;99.90;;;;;;5072890;28;20468;-85
2023/07/04 05:52:10;;;;;;;2.83;0.67;;;17.80;99.90;;;;;;5072899;28;20447;-84
2023/07/04 05:54:37;;;;;;;5.33;0.90;;;17.80;99.90;;;;;;5072865;28;20456;-84
2023/07/04 05:57:04;;;;;;;1.20;0.83;;;17.90;99.90;;;;;;5074510;28;20448;-85
2023/07/04 05:59:31;;;;;;;8.03;1.80;;;17.80;99.90;;;;;;5076476;28;20464;-85
2023/07/04 06:01:59;;;;;;;1.33;1.07;;;17.90;99.90;;;;;;5076556;28;20452;-84
2023/07/04 06:04:26;;;;;;;1.30;0.97;;;18.00;99.90;;;;;;5076091;28;20815;-84
2023/07/04 06:06:54;;;;;;;1.27;0.67;;;18.10;99.90;;;;;;5076320;28;20491;-84
2023/07/04 06:09:22;;;;;;;1.50;0.70;;;18.20;99.90;;;;;;5076326;28;20476;-84
2023/07/04 06:11:50;;;;;;;1.47;1.00;;;18.30;99.90;;;;;;5076261;28;20929;-84
2023/07/04 06:14:17;;;;;;;1.10;0.50;;;18.40;99.90;;;;;;5075927;28;20448;-83
2023/07/04 06:16:44;;;;;;;0.80;0.67;;;18.60;99.90;;;;;;5076216;28;20448;-83
2023/07/04 06:19:13;;;;;;;4.07;0.70;;;18.80;99.90;;;;;;5075752;28;20586;-84
2023/07/04 06:21:39;;;;;;;1.27;0.60;;;18.90;99.90;;;;;;5075796;28;20448;-83
2023/07/04 06:24:06;;;;;;;0.87;0.63;;;19.10;99.90;;;;;;5076065;28;20449;-83
2023/07/04 06:26:33;;;;;;;0.83;0.80;;;19.20;99.90;;;;;;5075949;28;20488;-84
2023/07/04 06:29:01;;;;;;;0.90;0.70;;;19.30;99.90;;;;;;5075615;28;20492;-84
2023/07/04 06:31:28;;;;;;;0.60;0.60;;;19.40;99.90;;;;;;5075966;28;20449;-84
2023/07/04 06:33:55;;;;;;;0.83;0.67;;;19.30;99.90;;;;;;5075613;28;20988;-84
2023/07/04 06:36:24;;;;;;;1.17;1.03;;;19.30;99.90;;;;;;5075861;28;20456;-84
2023/07/04 06:38:51;;;;;;;0.73;0.60;;;19.30;99.90;;;;;;5075839;28;20476;-83
2023/07/04 06:41:18;;;;;;;1.73;0.80;;;19.30;99.90;;;;;;5075999;28;20479;-84
2023/07/04 06:43:47;;;;;;;0.80;0.77;;;19.30;99.90;;;;;;5075742;28;20816;-84
2023/07/04 06:46:15;;;;;;;1.87;0.90;;;19.30;99.90;;;;;;5075781;28;20484;-84
2023/07/04 06:48:42;;;;;;;3.90;1.10;;;19.30;99.90;;;;;;5075600;28;20464;-84
2023/07/04 06:51:12;;;;;;;1.70;0.90;;;19.40;99.90;;;;;;5075601;28;20448;-84
2023/07/04 06:53:41;;;;;;;1.07;0.80;;;19.50;99.90;;;;;;5075259;28;21048;-84
2023/07/04 06:56:10;;;;;;;1.60;0.90;;;19.60;99.90;;;;;;5075481;28;20452;-84
2023/07/04 06:58:40;;;;;;;0.80;0.70;;;19.80;99.90;;;;;;5075298;28;20445;-83
2023/07/04 07:01:07;;;;;;;2.30;1.00;;;19.90;99.90;;;;;;5075913;28;20448;-85
2023/07/04 07:03:34;;;;;;;0.83;0.83;;;20.00;99.90;;;;;;5075452;28;20443;-84
2023/07/04 07:06:02;;;;;;;1.30;0.90;;;20.00;99.90;;;;;;5075309;28;20807;-85
2023/07/04 07:08:30;;;;;;;3.60;0.90;;;20.00;99.90;;;;;;5074308;28;20464;-85
2023/07/04 07:11:00;;;;;;;1.83;0.80;;;20.00;99.90;;;;;;5075222;28;20452;-85
2023/07/04 07:13:27;;;;;;;1.83;1.20;;;20.10;99.90;;;;;;5075223;28;20799;-85
2023/07/04 07:16:05;;;;;;;0.80;0.70;;;20.00;99.90;;;;;;5075133;28;20444;-85
2023/07/04 07:18:33;;;;;;;1.40;1.30;;;20.00;99.90;;;;;;5075086;28;20477;-85
2023/07/04 07:21:00;;;;;;;0.83;0.80;;;19.90;99.90;;;;;;5074991;28;20464;-84
2023/07/04 07:23:27;;;;;;;2.30;0.90;;;20.00;99.90;;;;;;5074935;28;20433;-85
2023/07/04 07:25:55;;;;;;;1.53;0.80;;;20.00;99.90;;;;;;5074923;28;20804;-85
2023/07/04 07:28:23;;;;;;;1.50;0.93;;;19.90;99.90;;;;;;5074531;28;20847;-84
2023/07/04 07:31:00;;;;;;;1.10;0.80;;;20.00;99.90;;;;;;5075433;28;20439;-85
2023/07/04 07:33:27;;;;;;;1.37;0.77;;;20.00;99.90;;;;;;5074816;28;20811;-84
2023/07/04 07:35:54;;;;;;;0.77;0.77;;;20.00;99.90;;;;;;5074523;28;20944;-85
2023/07/04 07:38:20;;;;;;;2.00;1.30;;;20.10;99.90;;;;;;5074645;28;20465;-84
2023/07/04 07:40:50;;;;;;;0.97;0.87;;;20.10;99.90;;;;;;5074278;28;20941;-85
2023/07/04 07:43:17;;;;;;;1.73;1.23;;;20.10;99.90;;;;;;5074685;28;20444;-85
2023/07/04 07:45:45;;;;;;;1.80;1.10;;;20.20;99.90;;;;;;5074598;28;20456;-84
2023/07/04 07:48:12;;;;;;;1.43;0.60;;;20.40;99.90;;;;;;5074657;28;20487;-85
2023/07/04 07:50:39;;;;;;;0.60;0.60;;;20.50;99.90;;;;;;5074449;28;20453;-85
2023/07/04 07:53:06;;;;;;;0.80;0.70;;;20.60;99.90;;;;;;5074352;28;20455;-84
2023/07/04 07:55:32;;;;;;;3.90;0.83;;;20.70;99.90;;;;;;5074503;28;20460;-84
2023/07/04 07:57:59;;;;;;;2.17;0.90;;;21.00;99.90;;;;;;5074368;28;20457;-84
2023/07/04 08:00:26;;;;;;;2.70;1.43;;;21.20;99.90;;;;;;5075216;28;20820;-84
2023/07/04 08:02:54;;;;;;;1.33;0.70;;;21.30;99.90;;;;;;5074232;28;20440;-85
2023/07/04 08:05:21;;;;;;;0.93;0.83;;;21.30;99.90;;;;;;5074199;28;20459;-84
2023/07/04 08:07:47;;;;;;;1.20;0.90;;;21.40;99.90;;;;;;5074034;28;20487;-84
2023/07/04 08:10:14;;;;;;;1.13;0.80;;;21.50;99.90;;;;;;5073969;28;20499;-84
2023/07/04 08:12:41;;;;;;;3.70;0.90;;;21.70;99.90;;;;;;5074216;28;20441;-84
2023/07/04 08:15:10;;;;;;;1.67;0.87;;;21.90;99.90;;;;;;5074005;28;20440;-84
2023/07/04 08:17:36;;;;;;;2.10;1.00;;;22.10;99.90;;;;;;5074382;28;20440;-85
2023/07/04 08:20:05;;;;;;;3.20;1.10;;;22.10;99.90;;;;;;5073744;28;20491;-84
2023/07/04 08:22:32;;;;;;;1.73;1.20;;;22.30;99.90;;;;;;5073563;28;20940;-84
2023/07/04 08:25:00;;;;;;;1.43;0.80;;;22.00;99.90;;;;;;5073846;28;20441;-84
2023/07/04 08:27:27;;;;;;;4.07;0.80;;;22.00;99.90;;;;;;5073703;28;20480;-84
2023/07/04 08:29:54;;;;;;;3.10;1.27;;;21.90;99.90;;;;;;5073539;28;20484;-85
2023/07/04 08:32:20;;;;;;;1.23;1.00;;;22.10;99.90;;;;;;5073401;28;20455;-84
2023/07/04 08:34:47;;;;;;;1.10;1.00;;;22.40;99.90;;;;;;5073698;28;20444;-84
2023/07/04 08:37:17;;;;;;;1.27;0.83;;;22.80;99.90;;;;;;5073678;28;20201;-84
2023/07/04 08:39:46;;;;;;;1.37;0.80;;;23.00;99.90;;;;;;5073617;28;20233;-84
2023/07/04 08:42:15;;;;;;;1.13;1.03;;;23.10;99.90;;;;;;5073290;28;20206;-84
2023/07/04 08:44:44;;;;;;;2.30;0.80;;;23.10;99.90;;;;;;5073590;28;20208;-84
2023/07/04 08:47:13;;;;;;;1.00;0.90;;;23.20;99.90;;;;;;5073484;28;20226;-84
2023/07/04 08:49:43;;;;;;;1.02;0.95;;;23.30;99.90;;;;;;5073469;28;20229;-84
2023/07/04 08:52:21;;;;;;;4.93;1.10;;;23.10;99.90;;;;;;5073475;28;20225;-84
2023/07/04 08:54:49;;;;;;;2.00;1.00;;;23.20;99.90;;;;;;5073534;28;20190;-85
2023/07/04 08:57:28;;;;;;;2.70;1.00;;;23.10;99.90;;;;;;5073223;28;20201;-85
2023/07/04 09:00:04;;;;;;;0.80;0.80;;;23.00;99.90;;;;;;5073413;28;20226;-85
2023/07/04 09:02:55;;;;;;;1.10;1.00;;;22.90;99.90;;;;;;5073110;28;20625;-85
2023/07/04 09:05:30;;;;;;;1.10;1.00;;;23.20;99.90;;;;;;5073393;28;20190;-85
2023/07/04 09:08:06;;;;;;;2.03;0.97;;;23.20;99.90;;;;;;5073288;28;20213;-84
2023/07/04 09:10:41;;;;;;;2.28;1.27;;;23.30;99.90;;;;;;5073366;28;20182;-84
2023/07/04 09:13:13;;;;;;;2.17;1.10;;;23.30;99.90;;;;;;5073081;28;20178;-84
2023/07/04 09:15:43;;;;;;;1.63;1.20;;;23.20;99.90;;;;;;5073456;28;20219;-83
2023/07/04 09:18:21;;;;;;;2.13;1.40;;;23.20;99.90;;;;;;5073250;28;20183;-84
2023/07/04 09:20:55;;;;;;;3.33;1.67;;;23.30;99.90;;;;;;5073253;28;20221;-85
2023/07/04 09:23:23;;;;;;;0.80;0.77;;;23.30;99.90;;;;;;5072926;28;20186;-84
2023/07/04 09:25:54;;;;;;;1.67;1.20;;;23.30;99.90;;;;;;5073151;28;20440;-84
2023/07/04 09:28:21;;;;;;;1.87;1.47;;;23.40;99.90;;;;;;5072824;28;20237;-84
2023/07/04 09:30:48;;;;;;;1.23;1.07;;;23.50;99.90;;;;;;5073138;28;20225;-86
2023/07/04 09:33:15;;;;;;;1.10;1.00;;;23.80;99.90;;;;;;5076824;28;20209;-84
2023/07/04 09:35:43;;;;;;;2.30;1.30;;;24.00;99.90;;;;;;5076700;28;20209;-84
2023/07/04 09:38:10;;;;;;;2.77;1.17;;;24.20;99.90;;;;;;5077013;28;20205;-84
2023/07/04 09:40:43;;;;;;;1.40;1.20;;;24.40;99.90;;;;;;5076763;28;20556;-84
2023/07/04 09:43:12;;;;;;;2.60;1.20;;;24.50;99.90;;;;;;5077437;28;20205;-84
2023/07/04 09:45:40;;;;;;;2.25;1.60;;;24.80;99.90;;;;;;5077541;28;20209;-85
2023/07/04 09:48:09;;;;;;;1.67;1.58;;;24.90;99.90;;;;;;5076366;28;20700;-84
2023/07/04 09:50:39;;;;;;;3.03;1.35;;;25.20;99.90;;;;;;5076850;28;20206;-84
2023/07/04 09:53:09;;;;;;;1.15;1.08;;;25.40;99.90;;;;;;5076728;28;20210;-84
2023/07/04 09:55:38;;;;;;;2.05;1.20;;;25.50;99.90;;;;;;5076687;28;20202;-84
2023/07/04 09:58:21;;;;;;;3.20;1.48;;;25.60;99.90;;;;;;5076623;28;20209;-84
2023/07/04 10:01:06;;;;;;;1.88;1.23;;;25.70;99.90;;;;;;5076558;28;20289;-84
2023/07/04 10:03:33;;;;;;;1.67;1.58;;;25.60;99.90;;;;;;5076939;28;20577;-84
2023/07/04 10:06:00;;;;;;;1.30;1.20;;;25.20;99.90;;;;;;5076537;28;20201;-85
2023/07/04 10:08:27;;;;;;;1.10;0.80;;;25.10;99.90;;;;;;5076593;28;20230;-84
2023/07/04 10:10:56;;;;;;;1.55;1.27;;;25.20;99.90;;;;;;5076042;28;20579;-84
2023/07/04 10:13:27;;;;;;;3.05;1.55;;;25.30;99.90;;;;;;5076758;28;20182;-84
2023/07/04 10:15:54;;;;;;;2.13;1.35;;;25.40;99.90;;;;;;5076456;28;20190;-84
2023/07/04 10:18:26;;;;;;;2.17;1.40;;;25.20;99.90;;;;;;5076178;28;20225;-84
2023/07/04 10:20:55;;;;;;;4.35;1.70;;;25.30;99.90;;;;;;5076226;28;20208;-84
2023/07/04 10:23:22;;;;;;;4.30;1.05;;;25.40;99.90;;;;;;5076159;28;20626;-83
2023/07/04 10:25:50;;;;;;;1.33;1.23;;;25.50;99.90;;;;;;5076109;28;20206;-84
2023/07/04 10:28:18;;;;;;;1.25;1.15;;;25.50;99.90;;;;;;5075743;28;20234;-84
2023/07/04 10:30:52;;;;;;;4.35;1.45;;;25.60;99.90;;;;;;5076041;28;20209;-83
2023/07/04 10:33:24;;;;;;;1.20;0.95;;;25.60;99.90;;;;;;5076168;28;20186;-83
2023/07/04 10:35:52;;;;;;;1.00;0.95;;;25.70;99.80;;;;;;5075864;28;20182;-83
2023/07/04 10:38:29;;;;;;;1.70;0.90;;;25.80;99.90;;;;;;5076100;28;20296;-84
2023/07/04 10:40:56;;;;;;;2.05;1.42;;;25.70;99.60;;;;;;5075927;28;20194;-84
2023/07/04 10:43:30;;;;;;;2.35;1.00;;;25.80;99.60;;;;;;5074461;28;20209;-83
2023/07/04 10:46:01;;;;;;;1.25;0.95;;;25.70;98.70;;;;;;5075780;28;20205;-83
2023/07/04 10:48:31;;;;;;;2.15;1.27;;;25.60;99.00;;;;;;5075691;28;20230;-83
2023/07/04 10:51:01;;;;;;;3.60;1.55;;;25.30;98.70;;;;;;5075630;28;20202;-83
2023/07/04 10:53:28;;;;;;;1.70;1.50;;;25.10;98.30;;;;;;5075388;28;20654;-84
2023/07/04 10:55:59;;;;;;;1.00;0.90;;;24.80;96.40;;;;;;5075545;28;20657;-83
2023/07/04 10:58:29;;;;;;;1.98;1.35;;;24.80;96.70;;;;;;5075486;28;20296;-83
2023/07/04 11:01:02;;;;;;;1.92;1.05;;;25.10;96.30;;;;;;5076275;28;20216;-84
2023/07/04 11:03:35;;;;;;;1.13;1.00;;;25.30;95.20;;;;;;5075130;28;20669;-84
2023/07/04 11:06:06;;;;;;;2.53;1.60;;;25.60;94.30;;;;;;5075402;28;20316;-83
2023/07/04 11:08:35;;;;;;;1.92;1.40;;;25.80;93.10;;;;;;5075601;28;20226;-82
2023/07/04 11:11:08;;;;;;;1.88;1.08;;;25.90;92.90;;;;;;5075323;28;20202;-82
2023/07/04 11:13:40;;;;;;;2.08;1.00;;;26.00;91.90;;;;;;5074979;28;20711;-83
2023/07/04 11:16:10;;;;;;;1.77;1.10;;;25.90;91.70;;;;;;5074978;28;20190;-83
2023/07/04 11:18:40;;;;;;;1.20;1.10;;;25.70;90.60;;;;;;5074945;28;20229;-85
2023/07/04 11:21:11;;;;;;;1.40;0.82;;;25.30;91.20;;;;;;5075392;28;20206;-83
2023/07/04 11:23:48;;;;;;;2.00;1.10;;;25.10;91.80;;;;;;5075072;28;20193;-82
2023/07/04 11:26:15;;;;;;;1.08;0.98;;;25.00;92.60;;;;;;5074950;28;20182;-83
2023/07/04 11:28:46;;;;;;;2.67;1.00;;;24.90;92.70;;;;;;5075068;28;20234;-83
2023/07/04 11:31:25;;;;;;;1.65;1.20;;;24.80;92.70;;;;;;5074664;28;20638;-83
2023/07/04 11:34:04;;;;;;;1.00;0.90;;;24.70;93.20;;;;;;5074894;28;20247;-83
2023/07/04 11:36:33;;;;;;;2.35;1.25;;;24.90;94.30;;;;;;5074822;28;20197;-82
2023/07/04 11:39:03;;;;;;;1.98;0.88;;;25.10;93.90;;;;;;5074406;28;20218;-83
2023/07/04 11:41:33;;;;;;;0.70;0.60;;;25.10;92.50;;;;;;5074713;28;20240;-82
2023/07/04 11:44:14;;;;;;;0.88;0.88;;;25.10;93.00;;;;;;5075383;28;20251;-83
2023/07/04 11:46:43;;;;;;;4.40;0.80;;;25.00;93.00;;;;;;5074285;28;20652;-83
2023/07/04 11:49:18;;;;;;;1.63;0.93;;;24.80;93.70;;;;;;5074341;28;20222;-83
2023/07/04 11:51:45;;;;;;;1.73;1.15;;;24.60;93.50;;;;;;5074804;28;20186;-82
2023/07/04 11:54:13;;;;;;;1.02;0.98;;;24.70;94.50;;;;;;5073965;28;20212;-83
2023/07/04 11:56:42;;;;;;;1.13;1.10;;;24.90;94.00;;;;;;5073988;28;20198;-82
2023/07/04 11:59:39;;;;;;;4.20;0.93;;;25.10;94.00;;;;;;5074233;28;20308;-82
2023/07/04 12:02:23;;;;;;;1.00;0.88;;;25.10;93.80;;;;;;5073988;28;20227;-83
2023/07/04 12:04:51;;;;;;;0.77;0.77;;;24.90;92.50;;;;;;5071579;28;20669;-83
2023/07/04 12:07:45;;;;;;;1.92;1.13;;;24.80;92.30;;;;;;5074158;28;20255;-82
2023/07/04 12:10:16;;;;;;;1.13;0.90;;;24.90;93.30;;;;;;5071980;28;20229;-83
2023/07/04 12:12:44;;;;;;;1.10;0.90;;;24.80;93.40;;;;;;5074145;28;20187;-83
2023/07/04 12:15:14;;;;;;;1.30;0.73;;;24.80;92.70;;;;;;5073641;28;20597;-83
2023/07/04 12:17:44;;;;;;;0.82;0.82;;;24.70;93.20;;;;;;5073678;28;20190;-83
2023/07/04 12:20:13;;;;;;;0.93;0.93;;;24.70;93.60;;;;;;5074160;28;20229;-83
2023/07/04 12:22:45;;;;;;;1.30;1.10;;;24.80;92.80;;;;;;5073911;28;20202;-83
2023/07/04 12:25:18;;;;;;;0.85;0.80;;;24.80;93.40;;;;;;5073856;28;20225;-83
2023/07/04 12:27:45;;;;;;;2.10;1.10;;;24.90;93.00;;;;;;5073283;28;20301;-83
2023/07/04 12:30:13;;;;;;;1.35;0.98;;;24.90;92.20;;;;;;5073440;28;20733;-82
2023/07/04 12:32:42;;;;;;;1.33;0.80;;;25.00;92.80;;;;;;5073646;28;20198;-82
2023/07/04 12:35:16;;;;;;;1.17;0.98;;;25.20;92.40;;;;;;5073667;28;20222;-83
2023/07/04 12:37:47;;;;;;;1.98;1.10;;;25.20;92.30;;;;;;5073769;28;20196;-83
2023/07/04 12:40:16;;;;;;;1.00;0.80;;;25.30;92.00;;;;;;5073615;28;20218;-82
2023/07/04 12:42:45;;;;;;;1.35;0.70;;;25.20;92.20;;;;;;5073625;28;20210;-82
2023/07/04 12:45:16;;;;;;;1.20;0.88;;;25.30;91.60;;;;;;5073727;28;20205;-82
2023/07/04 12:47:45;;;;;;;1.10;0.95;;;25.20;91.60;;;;;;5073594;28;20251;-85
2023/07/04 12:50:15;;;;;;;3.13;0.77;;;25.20;91.10;;;;;;5073669;28;20264;-83
2023/07/04 12:52:43;;;;;;;2.45;0.80;;;25.10;91.20;;;;;;5073485;28;20206;-82
2023/07/04 12:55:20;;;;;;;1.00;0.82;;;25.10;91.60;;;;;;5073209;28;20557;-84
2023/07/04 12:57:47;;;;;;;1.70;1.10;;;25.10;90.20;;;;;;5073601;28;20213;-83